Time;durP1;ratioP1;P1;durP2;ratioP2;P2;SDS_P1;SDS_P2;PMS_P1;PMS_P2;Temp;Humidity;BMP_temperature;BMP_pressure;BME280_temperature;BME280_humidity;BME280_pressure;Samples;Min_cycle;Max_cycle;Signal;HPM_P1;HPM_P2
2022/06/08 00:00:45;;;;;;;0.40;0.20;;;12.40;99.90;;;;;;5065036;28;20870;-67
2022/06/08 00:03:16;;;;;;;0.40;0.30;;;12.40;99.90;;;;;;5070068;28;20380;-67
2022/06/08 00:05:42;;;;;;;0.40;0.20;;;12.40;99.90;;;;;;5070926;28;20375;-67
2022/06/08 00:08:08;;;;;;;0.40;0.20;;;12.50;99.90;;;;;;5052060;28;21084;-67
2022/06/08 00:10:34;;;;;;;0.40;0.20;;;12.40;99.90;;;;;;5070889;28;20383;-67
2022/06/08 00:13:00;;;;;;;0.40;0.20;;;12.40;99.90;;;;;;5069733;28;20395;-67
2022/06/08 00:15:26;;;;;;;0.40;0.20;;;12.40;99.90;;;;;;5070366;28;20754;-67
2022/06/08 00:17:52;;;;;;;0.40;0.20;;;12.30;99.90;;;;;;5069969;28;20384;-67
2022/06/08 00:20:18;;;;;;;0.40;0.30;;;12.30;99.90;;;;;;5070820;28;20769;-67
2022/06/08 00:22:44;;;;;;;0.40;0.20;;;12.20;99.90;;;;;;5070555;28;20485;-68
2022/06/08 00:25:11;;;;;;;0.40;0.20;;;12.30;99.90;;;;;;5069935;28;20426;-67
2022/06/08 00:27:37;;;;;;;0.40;0.20;;;12.20;99.90;;;;;;5070652;28;20764;-67
2022/06/08 00:30:06;;;;;;;0.40;0.20;;;12.20;99.90;;;;;;5069797;28;20433;-68
2022/06/08 00:32:32;;;;;;;0.40;0.30;;;12.10;99.90;;;;;;5070332;28;20380;-67
2022/06/08 00:34:58;;;;;;;0.40;0.20;;;12.00;99.90;;;;;;5069757;28;20743;-67
2022/06/08 00:37:25;;;;;;;0.40;0.30;;;12.00;99.90;;;;;;5063870;28;20402;-67
2022/06/08 00:39:50;;;;;;;0.40;0.30;;;12.10;99.90;;;;;;5058771;28;20381;-67
2022/06/08 00:42:16;;;;;;;0.40;0.27;;;12.10;99.90;;;;;;5050095;28;20377;-66
2022/06/08 00:45:13;;;;;;;0.40;0.20;;;12.00;99.90;;;;;;5050040;28;20743;-67
2022/06/08 00:47:55;;;;;;;0.40;0.20;;;12.10;99.90;;;;;;5050306;28;20500;-67
2022/06/08 00:50:38;;;;;;;0.40;0.30;;;12.10;99.90;;;;;;5050632;28;20378;-68
2022/06/08 00:53:06;;;;;;;0.40;0.40;;;12.00;99.90;;;;;;5049605;28;20382;-68
2022/06/08 00:55:36;;;;;;;0.40;0.30;;;12.00;99.90;;;;;;5050340;28;20390;-67
2022/06/08 00:58:06;;;;;;;0.40;0.20;;;12.00;99.90;;;;;;5055159;28;20441;-68
2022/06/08 01:00:37;;;;;;;0.40;0.30;;;12.00;99.90;;;;;;5070475;28;20407;-67
2022/06/08 01:03:04;;;;;;;0.40;0.20;;;12.00;99.90;;;;;;5069536;28;20401;-68
2022/06/08 01:05:44;;;;;;;0.40;0.20;;;12.00;99.90;;;;;;5069754;28;20376;-67
2022/06/08 01:08:32;;;;;;;0.40;0.20;;;12.00;99.90;;;;;;5071021;28;20514;-68
2022/06/08 01:11:01;;;;;;;0.40;0.20;;;12.00;99.90;;;;;;5073215;28;20384;-68
2022/06/08 01:13:29;;;;;;;0.40;0.20;;;11.90;99.90;;;;;;5074427;28;20429;-67
2022/06/08 01:15:55;;;;;;;0.40;0.30;;;11.90;99.90;;;;;;5073072;28;20909;-68
2022/06/08 01:18:21;;;;;;;0.40;0.20;;;11.90;99.90;;;;;;5074193;28;20489;-67
2022/06/08 01:20:55;;;;;;;0.40;0.20;;;11.90;99.90;;;;;;5073625;28;20836;-67
2022/06/08 01:23:23;;;;;;;0.40;0.20;;;11.90;99.90;;;;;;5073944;28;20372;-67
2022/06/08 01:26:20;;;;;;;0.40;0.20;;;11.90;99.90;;;;;;5073815;28;20398;-67
2022/06/08 01:28:52;;;;;;;0.40;0.20;;;11.90;99.90;;;;;;5073884;28;20383;-67
2022/06/08 01:31:39;;;;;;;0.40;0.20;;;12.00;99.90;;;;;;5073041;28;20376;-67
2022/06/08 01:34:42;;;;;;;0.40;0.20;;;12.00;99.90;;;;;;5073003;28;20720;-68
2022/06/08 01:37:07;;;;;;;0.40;0.20;;;11.90;99.90;;;;;;5034454;28;20392;-67
2022/06/08 01:39:53;;;;;;;0.40;0.20;;;12.00;99.90;;;;;;5073354;28;20902;-67
2022/06/08 01:42:27;;;;;;;0.40;0.30;;;12.00;99.90;;;;;;5072625;28;20899;-68
2022/06/08 01:45:29;;;;;;;0.40;0.20;;;11.90;99.90;;;;;;5073608;28;20415;-68
2022/06/08 01:48:04;;;;;;;0.40;0.20;;;11.90;99.90;;;;;;5073050;28;20414;-68
2022/06/08 01:50:29;;;;;;;0.40;0.20;;;12.00;99.90;;;;;;5073396;28;20407;-68
2022/06/08 01:53:30;;;;;;;0.40;0.20;;;12.00;99.90;;;;;;5073033;28;20384;-68
2022/06/08 01:56:21;;;;;;;0.40;0.20;;;12.00;99.90;;;;;;5072963;28;20388;-68
2022/06/08 01:59:05;;;;;;;0.40;0.20;;;12.10;99.90;;;;;;5073163;28;20403;-67
2022/06/08 02:01:59;;;;;;;0.40;0.20;;;12.10;99.90;;;;;;5073047;28;20380;-67
2022/06/08 02:04:30;;;;;;;0.40;0.20;;;12.10;99.90;;;;;;5073112;28;20510;-67
2022/06/08 02:07:36;;;;;;;0.40;0.30;;;12.10;99.90;;;;;;5072590;28;20408;-67
2022/06/08 02:10:19;;;;;;;0.40;0.20;;;12.10;99.90;;;;;;5067776;28;20783;-68
2022/06/08 02:12:51;;;;;;;0.40;0.20;;;12.10;99.90;;;;;;5072790;28;20402;-67
2022/06/08 02:15:32;;;;;;;0.40;0.20;;;12.20;99.90;;;;;;5072104;28;20445;-67
2022/06/08 02:18:05;;;;;;;0.40;0.30;;;12.20;99.90;;;;;;5072354;28;20724;-68
2022/06/08 02:20:42;;;;;;;0.40;0.20;;;12.20;99.90;;;;;;5071736;28;20474;-68
2022/06/08 02:23:30;;;;;;;0.60;0.60;;;12.30;99.90;;;;;;5072118;28;20372;-68
2022/06/08 02:26:03;;;;;;;0.60;0.60;;;12.20;99.90;;;;;;5072548;28;20712;-68
2022/06/08 02:28:31;;;;;;;0.40;0.30;;;12.20;99.90;;;;;;5072741;28;20404;-68
2022/06/08 02:31:09;;;;;;;0.60;0.60;;;12.20;99.90;;;;;;5072284;28;20495;-68
2022/06/08 02:36:29;;;;;;;0.50;0.50;;;12.30;99.90;;;;;;5071847;28;20461;-68
2022/06/08 02:39:03;;;;;;;0.40;0.20;;;12.30;99.90;;;;;;5072748;28;20413;-67
2022/06/08 02:41:30;;;;;;;1.42;1.05;;;12.30;99.90;;;;;;5072340;28;20383;-67
2022/06/08 02:44:01;;;;;;;0.40;0.20;;;12.20;99.90;;;;;;5072354;28;20545;-67
2022/06/08 02:46:30;;;;;;;0.40;0.20;;;12.20;99.90;;;;;;5072439;28;20383;-67
2022/06/08 02:49:02;;;;;;;0.40;0.20;;;12.20;99.90;;;;;;5072250;28;20416;-67
2022/06/08 02:51:30;;;;;;;0.50;0.30;;;12.20;99.90;;;;;;5072201;28;20372;-68
2022/06/08 02:54:01;;;;;;;0.40;0.20;;;12.20;99.90;;;;;;5072129;28;20726;-67
2022/06/08 02:56:41;;;;;;;0.40;0.20;;;12.20;99.90;;;;;;5072182;28;20452;-68
2022/06/08 02:59:32;;;;;;;0.40;0.20;;;12.20;99.90;;;;;;5071464;28;20388;-69
2022/06/08 03:02:17;;;;;;;0.40;0.20;;;12.20;99.90;;;;;;5035360;28;20396;-68
2022/06/08 03:05:15;;;;;;;0.70;0.70;;;12.20;99.90;;;;;;5072099;28;20387;-68
2022/06/08 03:07:49;;;;;;;0.40;0.20;;;12.10;99.90;;;;;;5071855;28;20488;-68
2022/06/08 03:10:16;;;;;;;0.40;0.30;;;12.20;99.90;;;;;;5071076;28;20379;-68
2022/06/08 03:12:57;;;;;;;0.40;0.20;;;12.10;99.90;;;;;;5071515;28;20833;-68
2022/06/08 03:15:25;;;;;;;0.40;0.30;;;12.10;99.90;;;;;;5070694;28;20388;-68
2022/06/08 03:17:51;;;;;;;0.40;0.30;;;12.10;99.90;;;;;;5071628;28;20834;-68
2022/06/08 03:20:20;;;;;;;0.40;0.20;;;12.10;99.90;;;;;;5070915;28;20422;-68
2022/06/08 03:22:46;;;;;;;0.40;0.30;;;12.20;99.90;;;;;;5071516;28;20472;-68
2022/06/08 03:25:12;;;;;;;0.40;0.20;;;12.10;99.90;;;;;;5070767;28;20399;-68
2022/06/08 03:27:38;;;;;;;0.40;0.40;;;12.20;99.90;;;;;;5071352;28;20407;-68
2022/06/08 03:30:07;;;;;;;0.40;0.30;;;12.20;99.90;;;;;;5067994;28;20509;-69
2022/06/08 03:32:33;;;;;;;0.40;0.20;;;12.10;99.90;;;;;;5061245;28;20885;-68
2022/06/08 03:34:59;;;;;;;0.40;0.20;;;12.10;99.90;;;;;;5060475;28;20427;-68
2022/06/08 03:37:24;;;;;;;0.40;0.20;;;12.10;99.90;;;;;;5070714;28;20379;-68
2022/06/08 03:39:50;;;;;;;0.40;0.20;;;12.10;99.90;;;;;;5071250;28;20410;-68
2022/06/08 03:42:16;;;;;;;0.40;0.20;;;12.10;99.90;;;;;;5070306;28;20380;-68
2022/06/08 03:44:41;;;;;;;0.70;0.70;;;12.00;99.90;;;;;;5071287;28;20870;-68
2022/06/08 03:47:12;;;;;;;0.40;0.20;;;12.00;99.90;;;;;;5070200;28;20407;-68
2022/06/08 03:49:39;;;;;;;0.40;0.20;;;12.00;99.90;;;;;;5070923;28;20387;-67
2022/06/08 03:52:10;;;;;;;0.40;0.20;;;12.10;99.90;;;;;;5070467;28;20380;-68
2022/06/08 03:54:40;;;;;;;0.40;0.20;;;12.00;99.90;;;;;;5071177;28;20376;-68
2022/06/08 03:57:08;;;;;;;0.40;0.28;;;12.00;99.90;;;;;;5070289;28;20733;-68
2022/06/08 03:59:38;;;;;;;0.40;0.27;;;11.90;99.90;;;;;;5071019;28;20470;-67
2022/06/08 04:02:04;;;;;;;0.40;0.30;;;11.90;99.90;;;;;;5070662;28;20798;-68
2022/06/08 04:04:29;;;;;;;0.40;0.20;;;11.90;99.90;;;;;;5070987;28;20415;-67
2022/06/08 04:06:55;;;;;;;0.40;0.20;;;11.90;99.90;;;;;;5070506;28;20407;-67
2022/06/08 04:09:21;;;;;;;0.40;0.20;;;11.80;99.90;;;;;;5070171;28;20380;-67
2022/06/08 04:11:46;;;;;;;0.40;0.30;;;11.80;99.90;;;;;;5071035;28;20412;-67
2022/06/08 04:14:12;;;;;;;0.40;0.20;;;11.80;99.90;;;;;;5070209;28;20392;-67
2022/06/08 04:16:38;;;;;;;0.40;0.20;;;11.90;99.90;;;;;;5070844;28;20442;-67
2022/06/08 04:19:03;;;;;;;0.40;0.20;;;11.90;99.90;;;;;;5070392;28;20833;-68
2022/06/08 04:21:29;;;;;;;0.40;0.40;;;11.90;99.90;;;;;;5070110;28;20883;-67
2022/06/08 04:23:55;;;;;;;0.40;0.20;;;11.90;99.90;;;;;;5070785;28;20414;-67
2022/06/08 04:26:22;;;;;;;0.40;0.20;;;11.90;99.90;;;;;;5070039;28;20742;-67
2022/06/08 04:28:48;;;;;;;0.40;0.20;;;11.90;99.90;;;;;;5070583;28;20384;-67
2022/06/08 04:31:15;;;;;;;0.40;0.20;;;11.90;99.90;;;;;;5069885;28;20376;-67
2022/06/08 04:33:41;;;;;;;0.40;0.20;;;11.90;99.90;;;;;;5070733;28;20431;-67
2022/06/08 04:36:07;;;;;;;0.40;0.20;;;11.90;99.90;;;;;;5070174;28;20380;-68
2022/06/08 04:38:33;;;;;;;0.40;0.20;;;12.00;99.90;;;;;;5070795;28;20390;-67
2022/06/08 04:41:01;;;;;;;0.40;0.30;;;12.00;99.90;;;;;;5070714;28;20380;-67
2022/06/08 04:43:27;;;;;;;0.40;0.20;;;12.00;99.90;;;;;;5071440;28;20478;-67
2022/06/08 04:45:52;;;;;;;0.40;0.20;;;12.00;99.90;;;;;;5074763;28;20871;-68
2022/06/08 04:48:19;;;;;;;0.40;0.20;;;12.10;99.90;;;;;;5073466;28;20413;-69
2022/06/08 04:50:45;;;;;;;0.40;0.20;;;12.10;99.90;;;;;;5074736;28;20387;-68
2022/06/08 04:53:11;;;;;;;0.40;0.20;;;12.10;99.90;;;;;;5073958;28;20898;-68
2022/06/08 04:55:37;;;;;;;0.40;0.20;;;12.20;99.90;;;;;;5074240;28;20769;-68
2022/06/08 04:58:03;;;;;;;0.40;0.20;;;12.30;99.90;;;;;;5074335;28;20376;-67
2022/06/08 05:00:29;;;;;;;0.40;0.20;;;12.20;99.90;;;;;;5073400;28;21158;-68
2022/06/08 05:02:55;;;;;;;0.40;0.20;;;12.30;99.90;;;;;;5074279;28;20402;-68
2022/06/08 05:05:24;;;;;;;0.40;0.20;;;12.40;99.90;;;;;;5055539;28;20473;-67
2022/06/08 05:07:51;;;;;;;0.40;0.20;;;12.40;99.90;;;;;;5073667;28;20405;-68
2022/06/08 05:10:17;;;;;;;0.40;0.20;;;12.40;99.90;;;;;;5073449;28;20735;-68
2022/06/08 05:12:44;;;;;;;0.40;0.20;;;12.50;99.90;;;;;;5074037;28;20383;-67
2022/06/08 05:15:16;;;;;;;0.40;0.20;;;12.60;99.90;;;;;;5073405;28;20467;-69
2022/06/08 05:17:42;;;;;;;0.40;0.30;;;12.60;99.90;;;;;;5074007;28;20388;-68
2022/06/08 05:20:09;;;;;;;0.40;0.20;;;12.70;99.90;;;;;;5073774;28;20379;-69
2022/06/08 05:22:37;;;;;;;0.90;0.90;;;12.80;99.90;;;;;;5073852;28;20375;-68
2022/06/08 05:25:07;;;;;;;0.40;0.20;;;13.00;99.90;;;;;;5056028;28;20450;-68
2022/06/08 05:27:33;;;;;;;0.40;0.30;;;13.00;99.90;;;;;;5073188;28;20413;-68
2022/06/08 05:29:59;;;;;;;0.40;0.20;;;13.10;99.90;;;;;;5073564;28;20382;-68
2022/06/08 05:32:25;;;;;;;0.40;0.27;;;13.20;99.90;;;;;;5073119;28;20462;-68
2022/06/08 05:34:51;;;;;;;0.40;0.20;;;13.20;99.90;;;;;;5073457;28;20468;-68
2022/06/08 05:37:16;;;;;;;0.40;0.30;;;13.30;99.90;;;;;;5055173;28;20506;-68
2022/06/08 05:39:42;;;;;;;0.40;0.20;;;13.30;99.90;;;;;;5073345;28;20380;-68
2022/06/08 05:42:08;;;;;;;0.40;0.20;;;13.40;99.90;;;;;;5073739;28;20380;-68
2022/06/08 05:44:35;;;;;;;0.40;0.20;;;13.50;99.90;;;;;;5072559;28;20411;-68
2022/06/08 05:47:02;;;;;;;0.40;0.20;;;13.50;99.90;;;;;;5055869;28;20435;-69
2022/06/08 05:49:33;;;;;;;0.40;0.20;;;13.60;99.90;;;;;;5072690;28;20670;-68
2022/06/08 05:51:59;;;;;;;0.40;0.20;;;13.70;99.90;;;;;;5073677;28;20732;-68
2022/06/08 05:54:24;;;;;;;0.40;0.20;;;13.80;99.90;;;;;;5054544;28;20433;-67
2022/06/08 05:56:50;;;;;;;0.40;0.20;;;13.90;99.90;;;;;;5073638;28;20379;-67
2022/06/08 05:59:16;;;;;;;0.40;0.20;;;14.00;99.90;;;;;;5072651;28;20934;-67
2022/06/08 06:01:42;;;;;;;0.40;0.20;;;14.00;99.90;;;;;;5073491;28;20372;-67
2022/06/08 06:04:08;;;;;;;0.40;0.20;;;14.20;99.90;;;;;;5073165;28;20456;-68
2022/06/08 06:06:34;;;;;;;0.40;0.20;;;14.30;99.90;;;;;;5072469;28;20383;-67
2022/06/08 06:09:01;;;;;;;0.40;0.40;;;14.40;99.90;;;;;;5061208;28;20401;-67
2022/06/08 06:11:26;;;;;;;0.40;0.40;;;14.40;99.90;;;;;;5059460;28;20460;-68
2022/06/08 06:13:52;;;;;;;0.40;0.20;;;14.50;99.90;;;;;;5052494;28;20551;-67
2022/06/08 06:16:18;;;;;;;0.40;0.20;;;14.60;99.90;;;;;;5052104;28;20507;-68
2022/06/08 06:18:44;;;;;;;0.50;0.50;;;14.70;99.90;;;;;;5052801;28;20381;-67
2022/06/08 06:21:17;;;;;;;0.40;0.20;;;14.80;99.90;;;;;;5052926;28;20382;-67
2022/06/08 06:23:42;;;;;;;0.80;0.80;;;15.00;99.90;;;;;;5035108;28;20393;-69
2022/06/08 06:26:08;;;;;;;0.40;0.20;;;15.10;99.90;;;;;;5061555;28;20405;-69
2022/06/08 06:28:34;;;;;;;0.40;0.20;;;15.30;99.90;;;;;;5053732;28;20822;-68
2022/06/08 06:31:00;;;;;;;0.40;0.20;;;15.40;99.90;;;;;;5072812;28;20457;-68
2022/06/08 06:33:25;;;;;;;0.40;0.30;;;15.50;99.90;;;;;;5061806;28;20896;-68
2022/06/08 06:35:51;;;;;;;0.40;0.20;;;15.70;99.90;;;;;;5072424;28;20790;-68
2022/06/08 06:38:16;;;;;;;0.60;0.60;;;15.80;99.90;;;;;;5068765;28;20411;-69
2022/06/08 06:40:43;;;;;;;0.40;0.20;;;15.90;99.90;;;;;;5062733;28;20730;-68
2022/06/08 06:43:12;;;;;;;0.70;0.70;;;16.00;99.90;;;;;;5057222;28;20407;-69
2022/06/08 06:45:37;;;;;;;0.40;0.20;;;16.20;99.90;;;;;;5059535;28;20401;-69
2022/06/08 06:48:03;;;;;;;0.40;0.20;;;16.20;99.90;;;;;;5052403;28;20431;-69
2022/06/08 06:50:29;;;;;;;0.40;0.25;;;16.30;99.90;;;;;;5051411;28;20429;-69
2022/06/08 06:52:55;;;;;;;0.40;0.20;;;16.30;99.90;;;;;;5052304;28;20400;-69
2022/06/08 06:55:28;;;;;;;1.20;0.80;;;16.40;99.90;;;;;;5066968;28;20779;-70
2022/06/08 06:58:02;;;;;;;0.40;0.20;;;16.30;99.90;;;;;;5071882;28;20422;-69
2022/06/08 07:00:28;;;;;;;0.40;0.20;;;16.30;99.90;;;;;;5053307;28;20463;-69
2022/06/08 07:02:54;;;;;;;0.40;0.20;;;16.40;99.90;;;;;;5072035;28;20543;-68
2022/06/08 07:05:26;;;;;;;0.40;0.20;;;16.50;99.90;;;;;;5070508;28;20368;-69
2022/06/08 07:07:52;;;;;;;0.40;0.20;;;16.70;99.90;;;;;;5090004;28;20904;-68
2022/06/08 07:10:18;;;;;;;0.40;0.20;;;16.90;99.90;;;;;;5091225;28;20382;-70
2022/06/08 07:12:44;;;;;;;0.40;0.20;;;17.00;99.90;;;;;;5092143;28;20444;-70
2022/06/08 07:15:16;;;;;;;0.40;0.27;;;17.10;99.90;;;;;;5073750;28;20394;-68
2022/06/08 07:17:42;;;;;;;0.40;0.20;;;17.20;99.90;;;;;;5091794;28;20385;-69
2022/06/08 07:20:10;;;;;;;0.40;0.20;;;17.30;99.90;;;;;;5091886;28;20587;-68
2022/06/08 07:22:36;;;;;;;0.40;0.40;;;17.30;99.90;;;;;;5072952;28;20411;-69
2022/06/08 07:25:03;;;;;;;0.40;0.30;;;17.40;99.90;;;;;;5079919;28;20479;-69
2022/06/08 07:27:29;;;;;;;0.40;0.20;;;17.30;99.90;;;;;;5073487;28;20854;-69
2022/06/08 07:29:55;;;;;;;0.40;0.20;;;17.30;99.90;;;;;;5069423;28;20478;-70
2022/06/08 07:32:21;;;;;;;0.40;0.20;;;17.20;99.90;;;;;;5069394;28;20416;-68
2022/06/08 07:34:47;;;;;;;0.40;0.20;;;17.20;99.90;;;;;;5071383;28;20376;-67
2022/06/08 07:37:12;;;;;;;1.10;1.00;;;17.30;99.90;;;;;;5071504;28;20804;-67
2022/06/08 07:39:39;;;;;;;0.40;0.20;;;17.50;99.90;;;;;;5070773;28;20379;-68
2022/06/08 07:42:05;;;;;;;0.40;0.20;;;17.60;99.90;;;;;;5071334;28;20391;-68
2022/06/08 07:44:31;;;;;;;0.40;0.20;;;17.80;99.90;;;;;;5087445;28;20421;-69
2022/06/08 07:46:57;;;;;;;0.40;0.20;;;18.00;99.90;;;;;;5091245;28;20770;-68
2022/06/08 07:49:39;;;;;;;0.40;0.20;;;18.10;99.90;;;;;;5090685;28;20374;-68
2022/06/08 07:52:16;;;;;;;0.40;0.20;;;18.20;99.90;;;;;;5091246;28;20382;-68
2022/06/08 07:54:43;;;;;;;0.40;0.30;;;18.10;99.90;;;;;;5091403;28;20395;-69
2022/06/08 07:57:14;;;;;;;0.40;0.20;;;18.20;99.90;;;;;;5091927;28;20382;-69
2022/06/08 07:59:41;;;;;;;0.40;0.20;;;18.30;99.90;;;;;;5070862;28;20395;-67
2022/06/08 08:02:08;;;;;;;0.40;0.20;;;18.40;99.90;;;;;;5071189;28;20717;-68
2022/06/08 08:04:35;;;;;;;0.40;0.20;;;18.50;99.90;;;;;;5052477;28;20482;-68
2022/06/08 08:07:00;;;;;;;0.40;0.20;;;18.60;99.90;;;;;;5052944;28;20411;-68
2022/06/08 08:09:26;;;;;;;0.40;0.30;;;18.60;99.90;;;;;;5069783;28;20772;-68
2022/06/08 08:11:53;;;;;;;0.40;0.20;;;18.50;99.90;;;;;;5070728;28;20384;-69
2022/06/08 08:14:21;;;;;;;0.40;0.28;;;18.40;99.90;;;;;;5070468;28;20395;-70
2022/06/08 08:16:54;;;;;;;0.40;0.30;;;18.40;99.90;;;;;;5052477;28;20397;-69
2022/06/08 08:19:23;;;;;;;0.40;0.30;;;18.40;99.90;;;;;;5056358;28;20370;-70
2022/06/08 08:21:49;;;;;;;0.40;0.30;;;18.60;99.90;;;;;;5071732;28;20471;-69
2022/06/08 08:24:16;;;;;;;0.40;0.30;;;18.60;99.90;;;;;;5070607;28;20376;-69
2022/06/08 08:26:44;;;;;;;0.40;0.20;;;18.90;99.90;;;;;;5069655;28;20371;-68
2022/06/08 08:29:10;;;;;;;0.40;0.20;;;19.20;99.90;;;;;;5052376;28;20896;-68
2022/06/08 08:31:37;;;;;;;0.40;0.40;;;19.40;99.90;;;;;;5058908;28;20429;-69
2022/06/08 08:34:04;;;;;;;0.40;0.30;;;19.30;99.90;;;;;;5068856;28;20772;-69
2022/06/08 08:36:30;;;;;;;0.40;0.20;;;19.40;99.90;;;;;;5080675;28;20785;-69
2022/06/08 08:38:55;;;;;;;0.40;0.20;;;19.40;99.90;;;;;;5067542;28;20403;-68
2022/06/08 08:44:36;;;;;;;0.40;0.20;;;19.50;99.90;;;;;;5064545;28;20429;-70
2022/06/08 08:47:24;;;;;;;0.40;0.30;;;19.30;99.90;;;;;;5064642;28;20408;-68
2022/06/08 08:50:04;;;;;;;0.40;0.20;;;19.50;99.90;;;;;;5071322;28;20398;-70
2022/06/08 08:52:40;;;;;;;0.40;0.30;;;19.70;99.90;;;;;;5058539;28;20392;-69
2022/06/08 08:55:17;;;;;;;0.40;0.20;;;19.60;99.90;;;;;;5075880;28;21874;-70
2022/06/08 08:57:56;;;;;;;0.40;0.20;;;19.80;99.90;;;;;;5071338;28;20403;-70
2022/06/08 09:00:48;;;;;;;0.40;0.30;;;19.80;99.90;;;;;;5078207;28;20593;-73
2022/06/08 09:03:38;;;;;;;0.40;0.20;;;19.70;95.50;;;;;;5063240;28;20824;-70
2022/06/08 09:06:12;;;;;;;0.40;0.20;;;19.50;95.20;;;;;;5072083;28;20773;-69
2022/06/08 09:08:39;;;;;;;0.40;0.20;;;19.90;98.50;;;;;;5065272;28;20403;-69
2022/06/08 09:11:28;;;;;;;0.40;0.30;;;20.10;97.20;;;;;;5066642;28;20458;-68
2022/06/08 09:13:58;;;;;;;0.40;0.20;;;20.10;96.60;;;;;;5066441;28;22006;-70
2022/06/08 09:16:37;;;;;;;0.40;0.20;;;20.10;95.50;;;;;;5065454;28;20803;-72
2022/06/08 09:19:21;;;;;;;0.40;0.28;;;20.30;95.60;;;;;;5069409;28;20505;-68
2022/06/08 09:21:48;;;;;;;0.70;0.50;;;20.30;99.60;;;;;;5067184;28;20439;-70
2022/06/08 09:24:35;;;;;;;0.40;0.30;;;20.30;98.30;;;;;;5069783;28;20395;-72
2022/06/08 09:27:13;;;;;;;0.40;0.20;;;20.40;96.80;;;;;;5061166;28;20419;-70
2022/06/08 09:30:13;;;;;;;0.40;0.20;;;20.20;98.20;;;;;;5068238;28;20404;-71
2022/06/08 09:32:49;;;;;;;0.40;0.20;;;20.20;98.40;;;;;;5018011;28;20407;-71
2022/06/08 09:35:55;;;;;;;0.40;0.20;;;20.40;86.90;;;;;;5068823;28;20972;-70
2022/06/08 09:38:24;;;;;;;0.40;0.20;;;20.50;81.70;;;;;;5061293;28;20547;-72
2022/06/08 09:41:13;;;;;;;0.40;0.20;;;20.50;78.70;;;;;;5055149;28;20400;-70
2022/06/08 09:44:06;;;;;;;0.40;0.20;;;20.50;84.30;;;;;;5069903;28;20453;-70
2022/06/08 09:52:35;;;;;;;0.40;0.30;;;21.00;86.00;;;;;;5075765;28;20399;-70
2022/06/08 09:55:20;;;;;;;0.40;0.30;;;21.10;79.40;;;;;;5071950;28;20428;-70
2022/06/08 09:57:52;;;;;;;0.40;0.30;;;21.50;76.50;;;;;;5080258;28;20840;-70
2022/06/08 10:00:27;;;;;;;0.40;0.20;;;21.80;75.10;;;;;;5075539;28;20400;-70
2022/06/08 10:03:13;;;;;;;0.40;0.22;;;22.00;68.20;;;;;;5072996;28;20929;-70
2022/06/08 10:06:13;;;;;;;0.40;0.25;;;21.80;75.70;;;;;;5070964;28;20494;-72
2022/06/08 10:09:06;;;;;;;0.40;0.30;;;21.80;71.20;;;;;;5073356;28;20448;-70
2022/06/08 10:12:03;;;;;;;0.40;0.30;;;21.80;72.90;;;;;;5072377;28;20961;-68
2022/06/08 10:15:01;;;;;;;0.40;0.20;;;21.80;73.50;;;;;;5068459;28;20908;-69
2022/06/08 10:17:42;;;;;;;0.40;0.30;;;21.90;75.30;;;;;;5066318;28;20752;-70
2022/06/08 10:20:45;;;;;;;0.40;0.30;;;22.10;72.20;;;;;;5060518;28;20759;-69
2022/06/08 10:23:44;;;;;;;0.40;0.20;;;22.00;72.40;;;;;;5013371;28;20395;-68
2022/06/08 10:26:20;;;;;;;0.40;0.20;;;22.10;73.20;;;;;;5021923;28;20401;-68
2022/06/08 10:28:52;;;;;;;0.40;0.20;;;21.90;71.90;;;;;;5063246;28;21051;-68
2022/06/08 10:31:42;;;;;;;0.40;0.30;;;21.80;72.20;;;;;;5071807;28;20756;-69
2022/06/08 10:34:17;;;;;;;0.40;0.30;;;22.10;72.80;;;;;;5071471;28;20979;-70
2022/06/08 10:36:49;;;;;;;0.40;0.20;;;22.40;71.10;;;;;;5085455;28;20455;-71
2022/06/08 10:39:15;;;;;;;0.40;0.30;;;22.60;70.30;;;;;;5074840;28;20964;-70
2022/06/08 10:42:39;;;;;;;0.40;0.30;;;22.40;71.20;;;;;;5065058;28;20393;-68
2022/06/08 10:45:30;;;;;;;0.40;0.20;;;22.30;67.30;;;;;;5048198;28;20533;-70
2022/06/08 10:48:23;;;;;;;0.40;0.20;;;22.50;68.80;;;;;;5051471;28;20409;-69
2022/06/08 10:51:06;;;;;;;0.40;0.28;;;22.30;69.00;;;;;;5044878;28;20428;-67
2022/06/08 10:56:34;;;;;;;0.40;0.20;;;22.30;68.10;;;;;;5051893;28;20393;-70
2022/06/08 10:59:06;;;;;;;0.40;0.20;;;22.20;69.40;;;;;;5066205;28;20819;-68
2022/06/08 11:01:53;;;;;;;0.40;0.25;;;22.20;66.20;;;;;;5071366;28;20384;-71
2022/06/08 11:04:30;;;;;;;0.40;0.30;;;22.20;66.50;;;;;;5072081;28;20859;-69
2022/06/08 11:07:14;;;;;;;0.40;0.20;;;22.20;67.20;;;;;;5071099;28;20403;-71
2022/06/08 11:09:45;;;;;;;0.40;0.30;;;22.20;66.20;;;;;;5069427;28;20412;-69
2022/06/08 11:12:11;;;;;;;0.40;0.20;;;22.00;64.70;;;;;;5070249;28;20744;-69
2022/06/08 11:14:48;;;;;;;0.40;0.30;;;21.90;64.40;;;;;;5069519;28;20404;-69
2022/06/08 11:17:34;;;;;;;0.40;0.30;;;22.20;66.40;;;;;;5067538;28;20383;-69
2022/06/08 11:20:13;;;;;;;0.40;0.22;;;22.10;65.30;;;;;;5068803;28;20888;-69
2022/06/08 11:22:45;;;;;;;0.40;0.20;;;22.00;64.10;;;;;;5066619;28;20414;-71
2022/06/08 11:25:41;;;;;;;0.40;0.20;;;22.10;63.50;;;;;;5070310;28;20392;-72
2022/06/08 11:28:27;;;;;;;0.40;0.20;;;22.30;62.10;;;;;;5069123;28;20811;-70
2022/06/08 11:30:55;;;;;;;0.40;0.20;;;22.20;60.00;;;;;;5068918;28;20398;-71
2022/06/08 11:33:22;;;;;;;0.40;0.30;;;22.30;59.20;;;;;;5067694;28;20388;-70
2022/06/08 11:36:02;;;;;;;0.40;0.20;;;22.50;60.30;;;;;;5069377;28;20905;-71
2022/06/08 11:38:40;;;;;;;0.40;0.20;;;22.90;59.90;;;;;;5068341;28;20384;-73
2022/06/08 11:41:27;;;;;;;0.40;0.30;;;23.10;59.50;;;;;;5068543;28;20398;-71
2022/06/08 11:43:55;;;;;;;0.40;0.30;;;23.20;59.10;;;;;;5068547;28;20429;-73
2022/06/08 11:46:36;;;;;;;0.40;0.30;;;23.20;59.50;;;;;;5067343;28;20378;-71
2022/06/08 11:49:02;;;;;;;0.40;0.30;;;23.50;59.60;;;;;;5067535;28;20411;-71
2022/06/08 11:51:45;;;;;;;0.40;0.22;;;24.00;60.80;;;;;;5069659;28;20382;-70
2022/06/08 11:54:35;;;;;;;0.40;0.20;;;24.10;59.20;;;;;;5059657;28;20398;-71
2022/06/08 11:57:03;;;;;;;0.40;0.20;;;24.20;58.00;;;;;;5069456;28;20379;-69
2022/06/08 11:59:34;;;;;;;0.40;0.20;;;24.10;58.80;;;;;;5069565;28;20751;-70
2022/06/08 12:02:12;;;;;;;0.40;0.30;;;23.70;61.00;;;;;;5066090;28;20910;-70
2022/06/08 12:04:44;;;;;;;0.50;0.50;;;23.70;59.50;;;;;;5068857;28;20391;-71
2022/06/08 12:07:50;;;;;;;0.40;0.20;;;23.30;59.10;;;;;;5067679;28;20407;-71
2022/06/08 12:10:25;;;;;;;0.40;0.20;;;23.30;59.60;;;;;;5068970;28;20400;-72
2022/06/08 12:12:53;;;;;;;0.40;0.30;;;22.80;60.00;;;;;;5066564;28;20396;-69
2022/06/08 12:15:33;;;;;;;0.40;0.20;;;22.50;64.00;;;;;;5069271;28;20440;-70
2022/06/08 12:18:39;;;;;;;0.40;0.22;;;22.70;65.20;;;;;;5068337;28;21131;-69
2022/06/08 12:21:09;;;;;;;0.40;0.20;;;22.70;64.20;;;;;;5028918;28;20395;-70
2022/06/08 12:23:45;;;;;;;0.40;0.20;;;22.80;63.60;;;;;;5067183;28;20399;-70
2022/06/08 12:26:20;;;;;;;0.40;0.20;;;22.70;65.40;;;;;;5069976;28;20425;-70
2022/06/08 12:29:05;;;;;;;0.40;0.30;;;22.40;66.00;;;;;;5072182;28;20404;-69
2022/06/08 12:31:31;;;;;;;0.50;0.50;;;22.40;67.50;;;;;;5069596;28;20419;-70
2022/06/08 12:34:44;;;;;;;0.40;0.30;;;22.40;67.30;;;;;;5071510;28;20387;-68
2022/06/08 12:37:28;;;;;;;0.40;0.20;;;22.30;70.20;;;;;;5035255;28;20756;-69
2022/06/08 12:39:59;;;;;;;0.40;0.20;;;22.10;69.70;;;;;;5065838;28;20427;-69
2022/06/08 12:42:28;;;;;;;0.40;0.20;;;21.80;71.10;;;;;;5068025;28;20405;-68
2022/06/08 12:44:57;;;;;;;0.47;0.40;;;21.70;72.00;;;;;;5068501;28;20457;-69
2022/06/08 12:47:28;;;;;;;0.40;0.20;;;21.50;74.70;;;;;;5064281;28;20453;-69
2022/06/08 12:50:15;;;;;;;0.40;0.20;;;21.50;76.30;;;;;;5069319;28;20395;-69
2022/06/08 12:52:43;;;;;;;0.40;0.20;;;21.30;80.80;;;;;;5069631;28;20387;-69
2022/06/08 12:55:19;;;;;;;0.40;0.20;;;21.10;87.50;;;;;;5070764;28;20470;-68
2022/06/08 12:57:46;;;;;;;0.40;0.20;;;20.90;90.00;;;;;;5069385;28;20745;-69
2022/06/08 13:00:16;;;;;;;0.40;0.20;;;20.80;91.40;;;;;;5071745;28;20394;-69
2022/06/08 13:02:42;;;;;;;0.40;0.40;;;20.90;89.90;;;;;;5076912;28;20387;-69
2022/06/08 13:05:30;;;;;;;0.40;0.30;;;20.90;88.00;;;;;;5072904;28;20396;-69
2022/06/08 13:07:56;;;;;;;0.40;0.20;;;20.90;88.80;;;;;;5072708;28;20410;-69
2022/06/08 13:10:24;;;;;;;0.40;0.20;;;20.90;91.10;;;;;;5073288;28;20442;-68
2022/06/08 13:12:54;;;;;;;0.40;0.20;;;20.80;89.10;;;;;;5070466;28;20477;-69
2022/06/08 13:15:26;;;;;;;0.40;0.20;;;20.70;84.40;;;;;;5073422;28;20399;-69
2022/06/08 13:17:52;;;;;;;0.40;0.20;;;20.60;85.50;;;;;;5072893;28;21045;-69
2022/06/08 13:20:24;;;;;;;0.40;0.20;;;20.40;87.60;;;;;;5073441;28;20379;-69
2022/06/08 13:22:50;;;;;;;0.40;0.20;;;20.10;94.40;;;;;;5072482;28;20421;-70
2022/06/08 13:25:18;;;;;;;0.40;0.20;;;19.50;99.90;;;;;;5072669;28;20474;-69
2022/06/08 13:27:45;;;;;;;0.43;0.22;;;18.70;99.90;;;;;;5072422;28;20459;-71
2022/06/08 13:30:33;;;;;;;0.40;0.20;;;18.30;99.90;;;;;;5073120;28;20457;-75
2022/06/08 13:32:59;;;;;;;0.40;0.20;;;17.70;99.90;;;;;;5053668;28;20411;-71